Time;durP1;ratioP1;P1;durP2;ratioP2;P2;SDS_P1;SDS_P2;PMS_P1;PMS_P2;Temp;Humidity;BMP_temperature;BMP_pressure;BME280_temperature;BME280_humidity;BME280_pressure;Samples;Min_cycle;Max_cycle;Signal;HPM_P1;HPM_P2
2023/12/26 00:00:11;;;;;;;8.40;4.40;;;;;;;3.77;100.00;98729.41;109439;1252;75107;-63
2023/12/26 00:02:41;;;;;;;8.80;5.20;;;;;;;3.76;100.00;98739.63;109320;1256;66935;-64
2023/12/26 00:05:09;;;;;;;9.50;5.60;;;;;;;3.75;100.00;98735.55;109382;1253;72763;-64
2023/12/26 00:07:37;;;;;;;11.70;5.30;;;;;;;3.76;100.00;98739.66;109367;1253;59221;-63
2023/12/26 00:10:04;;;;;;;9.10;5.30;;;;;;;3.78;100.00;98744.88;109411;1252;59417;-63
2023/12/26 00:12:32;;;;;;;7.80;4.80;;;;;;;3.81;100.00;98738.10;109390;1252;74942;-66
2023/12/26 00:15:00;;;;;;;8.40;4.90;;;;;;;3.82;100.00;98738.08;109367;1253;65673;-63
2023/12/26 00:17:28;;;;;;;7.30;4.60;;;;;;;3.82;100.00;98737.60;109410;1253;71488;-63
2023/12/26 00:19:55;;;;;;;8.40;4.70;;;;;;;3.80;100.00;98743.84;109420;1253;59686;-63
2023/12/26 00:22:23;;;;;;;9.40;4.70;;;;;;;3.78;100.00;98750.30;109385;1253;59030;-63
2023/12/26 00:24:52;;;;;;;11.20;5.90;;;;;;;3.75;100.00;98752.40;109332;1253;74673;-63
2023/12/26 00:27:20;;;;;;;9.10;4.70;;;;;;;3.75;100.00;98747.04;109406;1253;65656;-63
2023/12/26 00:29:48;;;;;;;8.60;4.90;;;;;;;3.73;100.00;98745.36;109436;1253;72857;-63
2023/12/26 00:32:16;;;;;;;9.70;5.00;;;;;;;3.70;100.00;98739.91;109395;1253;59577;-64
2023/12/26 00:34:44;;;;;;;11.30;5.00;;;;;;;3.64;100.00;98740.88;109376;1256;59202;-65
2023/12/26 00:37:12;;;;;;;8.40;5.30;;;;;;;3.59;100.00;98743.95;109419;1253;74702;-63
2023/12/26 00:39:41;;;;;;;9.20;4.90;;;;;;;3.59;100.00;98753.15;109364;1252;66944;-64
2023/12/26 00:42:08;;;;;;;9.60;5.40;;;;;;;3.57;100.00;98751.05;109414;1253;72690;-64
2023/12/26 00:44:39;;;;;;;8.50;4.60;;;;;;;3.57;100.00;98751.28;109345;1252;61654;-65
2023/12/26 00:47:06;;;;;;;9.50;5.00;;;;;;;3.57;100.00;98749.41;109405;1252;58955;-64
2023/12/26 00:49:34;;;;;;;9.20;5.10;;;;;;;3.57;100.00;98749.22;109430;1253;75162;-64
2023/12/26 00:52:02;;;;;;;9.70;5.00;;;;;;;3.56;100.00;98750.98;109395;1253;66980;-64
2023/12/26 00:54:30;;;;;;;8.30;4.90;;;;;;;3.56;100.00;98754.44;109352;1253;71367;-65
2023/12/26 00:56:57;;;;;;;8.30;4.30;;;;;;;3.58;100.00;98758.77;109358;1257;60102;-64
2023/12/26 00:59:25;;;;;;;8.30;4.50;;;;;;;3.59;100.00;98763.23;109200;1252;59060;-63
2023/12/26 01:01:53;;;;;;;8.10;4.50;;;;;;;3.60;100.00;98766.08;109404;1252;74773;-63
2023/12/26 01:04:22;;;;;;;8.40;5.00;;;;;;;3.63;100.00;98771.31;109396;1253;66288;-65
2023/12/26 01:06:50;;;;;;;7.60;4.30;;;;;;;3.68;100.00;98778.92;109362;1253;72700;-64
2023/12/26 01:09:17;;;;;;;8.40;4.50;;;;;;;3.72;100.00;98775.40;109387;1253;60971;-64
2023/12/26 01:11:45;;;;;;;7.10;4.10;;;;;;;3.74;100.00;98774.05;109384;1253;60098;-64
2023/12/26 01:14:13;;;;;;;8.50;4.40;;;;;;;3.79;100.00;98771.14;109342;1253;74649;-66
2023/12/26 01:16:44;;;;;;;7.40;4.40;;;;;;;3.81;100.00;98765.55;109417;1252;66442;-64
2023/12/26 01:19:16;;;;;;;8.10;5.10;;;;;;;3.84;100.00;98765.84;109373;1253;72757;-65
2023/12/26 01:21:44;;;;;;;8.10;3.80;;;;;;;3.90;100.00;98765.20;109371;1253;59659;-63
2023/12/26 01:24:12;;;;;;;12.90;4.50;;;;;;;3.93;100.00;98763.65;109406;1253;61471;-64
2023/12/26 01:26:39;;;;;;;6.90;3.80;;;;;;;3.96;100.00;98766.08;109202;1252;73396;-64
2023/12/26 01:29:08;;;;;;;5.90;3.50;;;;;;;3.99;100.00;98776.91;109395;1253;66942;-64
2023/12/26 01:31:36;;;;;;;8.40;3.70;;;;;;;4.00;100.00;98770.10;109380;1253;72692;-64
2023/12/26 01:34:04;;;;;;;6.40;3.40;;;;;;;4.02;100.00;98769.66;109345;1253;60135;-65
2023/12/26 01:36:32;;;;;;;8.10;3.70;;;;;;;4.06;100.00;98770.03;109330;1256;60052;-64
2023/12/26 01:39:05;;;;;;;9.10;4.00;;;;;;;4.10;100.00;98770.31;109401;1253;74728;-64
2023/12/26 01:41:35;;;;;;;7.30;4.00;;;;;;;4.14;100.00;98770.35;109378;1253;66945;-64
2023/12/26 01:44:03;;;;;;;7.20;3.70;;;;;;;4.19;100.00;98769.80;109373;1253;73313;-64
2023/12/26 01:46:30;;;;;;;7.30;3.80;;;;;;;4.23;100.00;98778.06;109322;1254;59736;-63
2023/12/26 01:48:58;;;;;;;8.10;4.20;;;;;;;4.25;100.00;98779.02;109396;1253;60081;-63
2023/12/26 01:51:26;;;;;;;7.70;3.90;;;;;;;4.29;100.00;98777.70;109218;1253;73523;-63
2023/12/26 01:53:54;;;;;;;5.90;3.20;;;;;;;4.30;100.00;98775.32;109348;1253;66792;-63
2023/12/26 01:56:22;;;;;;;6.50;3.50;;;;;;;4.37;100.00;98770.58;109355;1253;71644;-62
2023/12/26 01:58:49;;;;;;;8.00;3.40;;;;;;;4.37;100.00;98770.20;109175;1253;60442;-63
2023/12/26 02:01:17;;;;;;;8.40;3.40;;;;;;;4.39;100.00;98768.44;109376;1253;58956;-63
2023/12/26 02:03:45;;;;;;;7.00;3.80;;;;;;;4.40;100.00;98766.98;109380;1252;73082;-63
2023/12/26 02:06:14;;;;;;;7.50;3.40;;;;;;;4.39;100.00;98767.02;109297;1253;65671;-63
2023/12/26 02:08:41;;;;;;;7.60;3.50;;;;;;;4.38;100.00;98769.34;109346;1256;71485;-63
2023/12/26 02:11:10;;;;;;;5.70;2.40;;;;;;;4.37;100.00;98765.05;109357;1253;60496;-63
2023/12/26 02:13:38;;;;;;;7.90;3.30;;;;;;;4.39;100.00;98769.63;109384;1252;59084;-63
2023/12/26 02:16:10;;;;;;;6.00;2.80;;;;;;;4.42;100.00;98772.29;109335;1253;73437;-63
2023/12/26 02:18:38;;;;;;;6.00;3.30;;;;;;;4.42;100.00;98773.08;109203;1252;66984;-63
2023/12/26 02:21:06;;;;;;;6.30;2.80;;;;;;;4.42;100.00;98781.30;109356;1253;71563;-64
2023/12/26 02:23:34;;;;;;;6.90;3.00;;;;;;;4.43;100.00;98773.33;109380;1253;60748;-63
2023/12/26 02:26:02;;;;;;;5.50;2.60;;;;;;;4.46;100.00;98780.90;109139;1254;58922;-65
2023/12/26 02:28:32;;;;;;;5.90;3.10;;;;;;;4.49;100.00;98786.38;109178;1252;74686;-63
2023/12/26 02:31:01;;;;;;;5.70;2.60;;;;;;;4.51;100.00;98792.36;109295;1253;66973;-63
2023/12/26 02:33:29;;;;;;;6.70;3.40;;;;;;;4.56;100.00;98791.39;109194;1255;72711;-63
2023/12/26 02:35:58;;;;;;;8.00;2.70;;;;;;;4.57;100.00;98795.38;109347;1253;61827;-65
2023/12/26 02:38:26;;;;;;;5.90;2.70;;;;;;;4.57;100.00;98800.89;109380;1256;58934;-63
2023/12/26 02:40:54;;;;;;;5.60;2.40;;;;;;;4.59;100.00;98807.23;109417;1253;73970;-63
2023/12/26 02:43:22;;;;;;;5.20;2.40;;;;;;;4.62;100.00;98815.13;109393;1253;65881;-63
2023/12/26 02:45:49;;;;;;;6.60;2.80;;;;;;;4.65;100.00;98816.86;109172;1255;72765;-63
2023/12/26 02:48:17;;;;;;;5.10;2.00;;;;;;;4.64;100.00;98823.09;109300;1253;60835;-65
2023/12/26 02:50:46;;;;;;;4.90;2.10;;;;;;;4.63;100.00;98819.11;109411;1256;59255;-63
2023/12/26 02:53:13;;;;;;;4.50;2.40;;;;;;;4.60;100.00;98827.73;109360;1253;73463;-64
2023/12/26 02:55:41;;;;;;;4.00;2.00;;;;;;;4.58;100.00;98826.88;109387;1253;65873;-63
2023/12/26 02:58:09;;;;;;;4.70;1.70;;;;;;;4.55;100.00;98827.08;109201;1252;71797;-64
2023/12/26 03:00:37;;;;;;;4.70;1.80;;;;;;;4.52;100.00;98833.11;109340;1253;61331;-64
2023/12/26 03:03:06;;;;;;;4.70;2.30;;;;;;;4.51;100.00;98834.14;109403;1253;59313;-64
2023/12/26 03:05:34;;;;;;;4.70;2.10;;;;;;;4.51;100.00;98836.03;109410;1253;75148;-64
2023/12/26 03:08:02;;;;;;;4.00;2.00;;;;;;;4.51;100.00;98833.79;109348;1253;67055;-64
2023/12/26 03:10:30;;;;;;;5.00;1.70;;;;;;;4.49;100.00;98837.51;109308;1253;73747;-64
2023/12/26 03:12:57;;;;;;;4.20;1.90;;;;;;;4.44;100.00;98840.27;109347;1257;60872;-63
2023/12/26 03:15:25;;;;;;;4.70;1.90;;;;;;;4.37;100.00;98844.98;109349;1252;58957;-64
2023/12/26 03:17:53;;;;;;;5.00;2.00;;;;;;;4.33;100.00;98846.78;109391;1253;74742;-64
2023/12/26 03:20:21;;;;;;;3.30;1.80;;;;;;;4.29;100.00;98852.52;109298;1253;66923;-63
2023/12/26 03:22:49;;;;;;;4.50;1.80;;;;;;;4.26;100.00;98852.20;109159;1253;71882;-63
2023/12/26 03:25:16;;;;;;;4.00;1.70;;;;;;;4.24;100.00;98856.09;109368;1253;60494;-64
2023/12/26 03:27:44;;;;;;;3.40;1.60;;;;;;;4.20;100.00;98858.09;109204;1253;60101;-64
2023/12/26 03:30:12;;;;;;;4.50;1.80;;;;;;;4.18;100.00;98861.13;109348;1254;73898;-65
2023/12/26 03:32:40;;;;;;;3.80;1.90;;;;;;;4.22;100.00;98869.33;109377;1253;66477;-64
2023/12/26 03:35:09;;;;;;;4.00;2.00;;;;;;;4.26;100.00;98872.98;109306;1254;71391;-65
2023/12/26 03:37:37;;;;;;;3.30;1.70;;;;;;;4.34;100.00;98875.88;109337;1254;60482;-65
2023/12/26 03:40:06;;;;;;;5.30;1.90;;;;;;;4.40;100.00;98882.85;109379;1253;60179;-65
2023/12/26 03:42:34;;;;;;;4.80;1.90;;;;;;;4.46;100.00;98885.08;109307;1252;74925;-66
2023/12/26 03:45:04;;;;;;;3.80;1.60;;;;;;;4.53;100.00;98887.10;109180;1258;65636;-65
2023/12/26 03:47:32;;;;;;;5.10;1.50;;;;;;;4.57;100.00;98881.77;109399;1253;72895;-65
2023/12/26 03:50:00;;;;;;;3.70;1.60;;;;;;;4.63;100.00;98888.63;109139;1253;61767;-65
2023/12/26 03:52:28;;;;;;;4.10;1.90;;;;;;;4.67;100.00;98892.50;109376;1253;60083;-66
2023/12/26 03:54:56;;;;;;;3.20;1.40;;;;;;;4.70;100.00;98891.83;109333;1253;73481;-65
2023/12/26 03:57:24;;;;;;;4.00;1.50;;;;;;;4.71;100.00;98895.02;109359;1253;65802;-65
2023/12/26 03:59:51;;;;;;;3.40;1.40;;;;;;;4.70;100.00;98898.14;109344;1253;71764;-65
2023/12/26 04:02:19;;;;;;;2.90;1.40;;;;;;;4.68;100.00;98900.09;109149;1252;60825;-66
2023/12/26 04:04:47;;;;;;;3.60;1.70;;;;;;;4.62;100.00;98901.69;109227;1253;59206;-65
2023/12/26 04:07:15;;;;;;;4.20;1.30;;;;;;;4.53;100.00;98905.09;109324;1254;74597;-65
2023/12/26 04:09:43;;;;;;;4.20;1.40;;;;;;;4.46;100.00;98901.79;109233;1254;67397;-65
2023/12/26 04:12:10;;;;;;;3.50;1.60;;;;;;;4.40;100.00;98902.98;109125;1254;72077;-65
2023/12/26 04:14:38;;;;;;;4.60;1.50;;;;;;;4.39;100.00;98899.98;109350;1254;60570;-65
2023/12/26 04:17:06;;;;;;;3.10;1.40;;;;;;;4.37;100.00;98898.05;109417;1252;58898;-65
2023/12/26 04:19:34;;;;;;;3.60;1.40;;;;;;;4.32;100.00;98896.15;109435;1252;74706;-64
2023/12/26 04:22:02;;;;;;;3.10;1.40;;;;;;;4.26;100.00;98896.89;109315;1252;66135;-66
2023/12/26 04:24:30;;;;;;;2.40;1.20;;;;;;;4.20;100.00;98901.94;109215;1253;72773;-65
2023/12/26 04:26:57;;;;;;;3.80;1.30;;;;;;;4.12;100.00;98902.95;109229;1252;61004;-65
2023/12/26 04:29:26;;;;;;;3.70;0.90;;;;;;;4.03;100.00;98910.09;109209;1253;59039;-65
2023/12/26 04:31:54;;;;;;;3.10;1.40;;;;;;;3.98;100.00;98920.75;109310;1252;74756;-65
2023/12/26 04:34:22;;;;;;;3.70;1.10;;;;;;;3.95;100.00;98919.71;109343;1252;66934;-65
2023/12/26 04:36:50;;;;;;;3.40;1.30;;;;;;;3.90;100.00;98923.64;109341;1254;71446;-65
2023/12/26 04:39:17;;;;;;;2.60;0.90;;;;;;;3.87;100.00;98933.30;109195;1254;61746;-64
2023/12/26 04:41:49;;;;;;;2.30;0.60;;;;;;;3.87;100.00;98938.55;109401;1254;59326;-64
2023/12/26 04:44:16;;;;;;;2.70;0.70;;;;;;;3.89;100.00;98945.59;109345;1254;74597;-65
2023/12/26 04:46:44;;;;;;;2.80;0.70;;;;;;;3.89;100.00;98942.50;109387;1253;67038;-64
2023/12/26 04:49:12;;;;;;;5.30;0.80;;;;;;;3.88;100.00;98944.70;109253;1253;71459;-64
2023/12/26 04:51:39;;;;;;;2.20;0.60;;;;;;;3.90;100.00;98952.99;109204;1254;59726;-65
2023/12/26 04:54:07;;;;;;;2.60;0.60;;;;;;;3.90;100.00;98955.45;109176;1253;59545;-65
2023/12/26 04:56:36;;;;;;;2.30;0.50;;;;;;;3.88;100.00;98959.20;109254;1252;72759;-64
2023/12/26 04:59:04;;;;;;;3.80;0.70;;;;;;;3.85;100.00;98959.77;109363;1253;66952;-64
2023/12/26 05:01:32;;;;;;;2.30;0.50;;;;;;;3.84;100.00;98958.88;109337;1253;72823;-64
2023/12/26 05:04:00;;;;;;;2.90;0.80;;;;;;;3.85;100.00;98958.25;109174;1254;59668;-65
2023/12/26 05:06:28;;;;;;;2.60;0.80;;;;;;;3.87;100.00;98959.27;109204;1254;60014;-64
2023/12/26 05:08:55;;;;;;;1.70;0.50;;;;;;;3.85;100.00;98960.70;109328;1253;74735;-64
2023/12/26 05:11:24;;;;;;;2.90;0.60;;;;;;;3.82;100.00;98964.55;109219;1254;67567;-64
2023/12/26 05:13:52;;;;;;;2.40;0.70;;;;;;;3.81;100.00;98979.64;109401;1251;72728;-65
2023/12/26 05:16:20;;;;;;;2.30;0.50;;;;;;;3.80;100.00;98986.80;109292;1253;59706;-64
2023/12/26 05:18:48;;;;;;;3.60;0.90;;;;;;;3.79;100.00;98990.55;109213;1252;59373;-64
2023/12/26 05:21:20;;;;;;;3.50;0.80;;;;;;;3.75;100.00;98994.31;109254;1253;73474;-64
2023/12/26 05:23:48;;;;;;;3.20;0.60;;;;;;;3.70;100.00;99008.70;109183;1254;66221;-65
2023/12/26 05:26:16;;;;;;;4.00;0.80;;;;;;;3.69;100.00;99007.67;109188;1254;71362;-64
2023/12/26 05:28:46;;;;;;;3.30;0.70;;;;;;;3.70;100.00;99008.25;109220;1252;60994;-64
2023/12/26 05:31:18;;;;;;;5.30;0.60;;;;;;;3.72;100.00;99010.56;109226;1253;60098;-64
2023/12/26 05:33:46;;;;;;;3.30;0.70;;;;;;;3.75;100.00;99015.56;109304;1253;73440;-64
2023/12/26 05:36:14;;;;;;;5.00;0.80;;;;;;;3.77;100.00;99025.95;109309;1252;65960;-63
2023/12/26 05:38:42;;;;;;;4.10;1.30;;;;;;;3.79;100.00;99031.06;109195;1253;72741;-63
2023/12/26 05:41:09;;;;;;;3.40;0.80;;;;;;;3.83;100.00;99032.53;109157;1253;60935;-64
2023/12/26 05:43:37;;;;;;;3.90;1.50;;;;;;;3.86;100.00;99039.93;109211;1253;60197;-63
2023/12/26 05:46:05;;;;;;;3.50;0.90;;;;;;;3.91;100.00;99052.09;109369;1253;73295;-64
2023/12/26 05:48:33;;;;;;;2.80;0.80;;;;;;;3.97;100.00;99050.27;109268;1252;65498;-64
2023/12/26 05:51:01;;;;;;;3.80;1.30;;;;;;;4.13;100.00;99057.20;109195;1254;72732;-64
2023/12/26 05:53:30;;;;;;;3.70;0.70;;;;;;;4.26;100.00;99063.11;109348;1253;59805;-65
2023/12/26 05:55:58;;;;;;;2.30;0.50;;;;;;;4.27;100.00;99063.60;109193;1254;60086;-64
2023/12/26 05:58:25;;;;;;;5.20;0.80;;;;;;;4.23;100.00;99070.92;109322;1253;73410;-64
2023/12/26 06:00:53;;;;;;;4.80;1.00;;;;;;;4.15;100.00;99078.61;109245;1253;65622;-64
2023/12/26 06:03:21;;;;;;;3.50;0.90;;;;;;;4.07;100.00;99085.19;109359;1253;72735;-65
2023/12/26 06:05:49;;;;;;;5.00;0.90;;;;;;;3.99;100.00;99086.84;109155;1252;60967;-63
2023/12/26 06:08:17;;;;;;;5.70;0.80;;;;;;;3.91;100.00;99080.75;109238;1253;60034;-64
2023/12/26 06:10:45;;;;;;;3.00;0.60;;;;;;;3.95;100.00;99086.57;109356;1253;74757;-65
2023/12/26 06:13:12;;;;;;;3.00;0.80;;;;;;;4.29;100.00;99089.84;109340;1253;66941;-64
2023/12/26 06:15:40;;;;;;;3.70;0.90;;;;;;;4.77;100.00;99096.59;109175;1252;71478;-65
2023/12/26 06:18:08;;;;;;;2.60;0.60;;;;;;;5.27;100.00;99100.91;109324;1254;58896;-64
2023/12/26 06:20:36;;;;;;;2.30;1.00;;;;;;;5.74;100.00;99104.69;109357;1252;60080;-64
2023/12/26 06:23:04;;;;;;;5.50;1.00;;;;;;;6.15;100.00;99110.64;109389;1254;73958;-65
2023/12/26 06:25:31;;;;;;;2.60;0.90;;;;;;;6.49;100.00;99109.52;109317;1253;66924;-65
2023/12/26 06:27:59;;;;;;;4.60;1.20;;;;;;;6.79;100.00;99103.66;109332;1254;71969;-65
2023/12/26 06:30:27;;;;;;;3.50;1.00;;;;;;;7.08;100.00;99109.71;109200;1254;59155;-65
2023/12/26 06:32:55;;;;;;;4.10;1.20;;;;;;;7.35;100.00;99111.53;109294;1253;59048;-64
2023/12/26 06:35:24;;;;;;;6.70;1.30;;;;;;;7.62;100.00;99106.30;109204;1254;73472;-65
2023/12/26 06:37:51;;;;;;;4.10;1.10;;;;;;;7.82;100.00;99101.24;109350;1253;66935;-64
2023/12/26 06:40:19;;;;;;;3.10;1.40;;;;;;;7.98;100.00;99096.39;109343;1253;71808;-64
2023/12/26 06:42:47;;;;;;;3.70;1.00;;;;;;;8.11;100.00;99095.88;109305;1254;58970;-64
2023/12/26 06:45:14;;;;;;;2.10;0.70;;;;;;;8.23;100.00;99091.84;109275;1253;60087;-65
2023/12/26 06:47:42;;;;;;;4.40;0.70;;;;;;;8.33;100.00;99086.23;109237;1253;73989;-63
2023/12/26 06:50:10;;;;;;;3.60;0.90;;;;;;;8.45;100.00;99081.25;109328;1252;66231;-64
2023/12/26 06:52:38;;;;;;;3.30;1.20;;;;;;;8.55;100.00;99077.50;109311;1253;72780;-63
2023/12/26 06:55:06;;;;;;;4.70;1.10;;;;;;;8.60;100.00;99070.47;109226;1253;58938;-63
2023/12/26 06:57:34;;;;;;;5.10;1.70;;;;;;;8.67;100.00;99067.84;109390;1252;59033;-65
2023/12/26 07:00:02;;;;;;;4.10;1.20;;;;;;;8.81;100.00;99074.11;109366;1254;75665;-63
2023/12/26 07:02:32;;;;;;;5.10;1.20;;;;;;;8.95;100.00;99071.63;109269;1254;66937;-63
2023/12/26 07:05:00;;;;;;;2.60;0.90;;;;;;;9.03;100.00;99071.46;109229;1253;72647;-63
2023/12/26 07:07:28;;;;;;;3.20;0.80;;;;;;;9.10;100.00;99074.90;109194;1253;62317;-63
2023/12/26 07:09:55;;;;;;;5.10;1.40;;;;;;;9.20;100.00;99077.87;109355;1252;60134;-63
2023/12/26 07:12:23;;;;;;;3.70;1.00;;;;;;;9.29;100.00;99079.70;109349;1253;74268;-63
2023/12/26 07:14:51;;;;;;;3.10;0.90;;;;;;;9.38;100.00;99086.95;109328;1253;65866;-63
2023/12/26 07:17:18;;;;;;;3.50;1.00;;;;;;;9.48;100.00;99081.73;109310;1253;71840;-64
2023/12/26 07:19:46;;;;;;;3.40;0.90;;;;;;;9.54;100.00;99078.55;109335;1253;60192;-63
2023/12/26 07:22:14;;;;;;;3.50;1.10;;;;;;;9.57;100.00;99083.83;109375;1253;58960;-63
2023/12/26 07:24:41;;;;;;;4.90;1.20;;;;;;;9.56;100.00;99085.88;109336;1253;74527;-64
2023/12/26 07:27:09;;;;;;;3.50;1.30;;;;;;;9.52;100.00;99090.61;109309;1253;67273;-64
2023/12/26 07:29:37;;;;;;;4.10;1.50;;;;;;;9.60;100.00;99095.58;109312;1253;71525;-62
2023/12/26 07:32:05;;;;;;;4.00;1.20;;;;;;;9.66;100.00;99100.56;109273;1253;59385;-63
2023/12/26 07:34:32;;;;;;;4.10;1.50;;;;;;;9.65;100.00;99098.30;109335;1253;60057;-62
2023/12/26 07:37:00;;;;;;;4.10;1.20;;;;;;;9.64;100.00;99103.62;109364;1252;74853;-63
2023/12/26 07:39:28;;;;;;;6.90;1.60;;;;;;;9.70;100.00;99106.00;109302;1253;65695;-62
2023/12/26 07:41:59;;;;;;;6.00;1.90;;;;;;;9.81;100.00;99114.49;109319;1253;72728;-62
2023/12/26 07:44:31;;;;;;;5.70;1.30;;;;;;;9.90;100.00;99115.61;109328;1253;59017;-62
2023/12/26 07:46:59;;;;;;;3.60;1.40;;;;;;;9.90;100.00;99120.14;109299;1253;58872;-63
2023/12/26 07:49:26;;;;;;;3.80;1.30;;;;;;;9.90;100.00;99119.71;109295;1252;75571;-62
2023/12/26 07:51:54;;;;;;;4.50;1.30;;;;;;;9.87;100.00;99132.89;109363;1253;67199;-62
2023/12/26 07:54:22;;;;;;;5.00;1.10;;;;;;;9.92;100.00;99135.23;109180;1252;73119;-61
2023/12/26 07:56:50;;;;;;;4.80;1.20;;;;;;;9.96;100.00;99129.57;109303;1253;58972;-62
2023/12/26 07:59:17;;;;;;;3.70;1.50;;;;;;;9.96;100.00;99138.27;109270;1253;59080;-62
2023/12/26 08:01:45;;;;;;;6.00;2.00;;;;;;;10.04;100.00;99139.67;109364;1254;74707;-61
2023/12/26 08:04:13;;;;;;;4.10;1.00;;;;;;;10.13;100.00;99140.84;109362;1253;65914;-61
2023/12/26 08:06:40;;;;;;;4.50;1.30;;;;;;;10.23;100.00;99139.32;109320;1253;71419;-61
2023/12/26 08:09:08;;;;;;;4.90;1.60;;;;;;;10.32;100.00;99148.39;109332;1252;60165;-59
2023/12/26 08:11:36;;;;;;;5.50;1.30;;;;;;;10.35;100.00;99153.51;109309;1252;60223;-61
2023/12/26 08:14:03;;;;;;;4.80;1.50;;;;;;;10.34;100.00;99153.47;109347;1252;75152;-61
2023/12/26 08:16:31;;;;;;;6.00;1.20;;;;;;;10.38;100.00;99160.27;109343;1253;66996;-61
2023/12/26 08:19:00;;;;;;;3.40;1.00;;;;;;;10.42;100.00;99161.09;109295;1253;72737;-64
2023/12/26 08:21:29;;;;;;;3.90;1.20;;;;;;;10.48;100.00;99163.83;109376;1253;58927;-61
2023/12/26 08:23:56;;;;;;;3.80;1.40;;;;;;;10.49;100.00;99164.66;109363;1252;58973;-61
2023/12/26 08:26:31;;;;;;;5.00;1.30;;;;;;;10.46;100.00;99166.64;109316;1252;74754;-61
2023/12/26 08:28:59;;;;;;;3.70;1.30;;;;;;;10.41;100.00;99167.67;109281;1253;65821;-61
2023/12/26 08:31:26;;;;;;;4.80;1.20;;;;;;;10.27;100.00;99170.36;109336;1253;71495;-61
2023/12/26 08:33:54;;;;;;;4.60;1.30;;;;;;;10.09;100.00;99178.19;109293;1253;59375;-61
2023/12/26 08:36:22;;;;;;;4.00;1.20;;;;;;;9.98;100.00;99178.99;109319;1252;59051;-60
2023/12/26 08:38:49;;;;;;;4.80;1.40;;;;;;;10.01;100.00;99179.25;109296;1252;74333;-63
2023/12/26 08:41:17;;;;;;;6.00;1.90;;;;;;;10.03;100.00;99189.63;109281;1254;65665;-60
2023/12/26 08:43:45;;;;;;;5.30;1.40;;;;;;;9.95;100.00;99199.27;109281;1253;72773;-60
2023/12/26 08:46:13;;;;;;;5.80;1.40;;;;;;;9.95;100.00;99197.14;109358;1253;59484;-61
2023/12/26 08:48:40;;;;;;;6.70;1.30;;;;;;;9.96;100.00;99196.94;109352;1252;59463;-60
2023/12/26 08:51:08;;;;;;;6.00;1.10;;;;;;;9.96;100.00;99203.02;109288;1253;74867;-62
2023/12/26 08:53:36;;;;;;;4.60;1.40;;;;;;;9.95;100.00;99206.52;109364;1253;65993;-60
2023/12/26 08:56:03;;;;;;;3.50;1.20;;;;;;;9.90;100.00;99216.02;109352;1253;70241;-60
2023/12/26 08:58:35;;;;;;;3.30;1.10;;;;;;;9.93;100.00;99215.97;109297;1253;59034;-60
2023/12/26 09:01:02;;;;;;;4.50;1.00;;;;;;;10.07;100.00;99214.02;109415;1252;59467;-61
2023/12/26 09:03:30;;;;;;;5.70;1.40;;;;;;;10.24;100.00;99219.50;109351;1252;74707;-60
2023/12/26 09:05:58;;;;;;;5.70;1.30;;;;;;;10.40;100.00;99210.91;109278;1253;65750;-60
2023/12/26 09:08:26;;;;;;;4.70;1.30;;;;;;;10.45;100.00;99217.63;109306;1253;73327;-61
2023/12/26 09:10:53;;;;;;;4.50;1.10;;;;;;;10.50;100.00;99214.11;109240;1253;60107;-60
2023/12/26 09:13:21;;;;;;;5.10;1.00;;;;;;;10.50;100.00;99219.92;109345;1253;60047;-60
2023/12/26 09:15:49;;;;;;;6.10;1.20;;;;;;;10.41;100.00;99222.10;109325;1252;74721;-59
2023/12/26 09:18:16;;;;;;;5.50;1.30;;;;;;;10.27;100.00;99227.99;109341;1252;67830;-60
2023/12/26 09:20:44;;;;;;;4.30;1.10;;;;;;;10.05;100.00;99239.13;109265;1253;71306;-60
2023/12/26 09:23:12;;;;;;;5.30;1.30;;;;;;;9.90;100.00;99247.58;109270;1253;61691;-60
2023/12/26 09:25:40;;;;;;;4.00;1.10;;;;;;;9.83;100.00;99244.23;109341;1253;61130;-60
2023/12/26 09:28:08;;;;;;;4.90;1.50;;;;;;;9.87;100.00;99246.38;109340;1253;77000;-59
2023/12/26 09:30:36;;;;;;;4.50;1.30;;;;;;;9.95;100.00;99253.14;109259;1254;69870;-61
2023/12/26 09:33:05;;;;;;;5.20;1.40;;;;;;;9.86;100.00;99253.52;109339;1253;75323;-60
2023/12/26 09:35:33;;;;;;;3.60;1.00;;;;;;;9.68;100.00;99257.73;109336;1253;62221;-59
2023/12/26 09:38:03;;;;;;;2.90;0.90;;;;;;;9.57;100.00;99262.27;109323;1253;61470;-60
2023/12/26 09:40:31;;;;;;;7.30;1.20;;;;;;;9.48;100.00;99267.66;109298;1253;76374;-63
2023/12/26 09:43:01;;;;;;;3.10;1.10;;;;;;;9.46;100.00;99269.63;109325;1253;68836;-60
2023/12/26 09:45:30;;;;;;;3.70;1.20;;;;;;;9.49;100.00;99266.88;109287;1253;72756;-60
2023/12/26 09:47:58;;;;;;;4.90;1.50;;;;;;;9.47;100.00;99270.19;109283;1253;61249;-60
2023/12/26 09:50:26;;;;;;;7.50;1.80;;;;;;;9.37;100.00;99278.07;109248;1253;62003;-63
2023/12/26 09:52:58;;;;;;;3.70;1.20;;;;;;;9.25;100.00;99280.13;109319;1252;76747;-60
2023/12/26 09:55:29;;;;;;;6.20;1.70;;;;;;;9.12;100.00;99282.79;109339;1252;66857;-59
2023/12/26 09:57:57;;;;;;;5.40;1.60;;;;;;;9.09;100.00;99279.02;109336;1253;74844;-60
2023/12/26 10:00:29;;;;;;;4.80;1.40;;;;;;;9.07;100.00;99283.89;109216;1253;59954;-62
2023/12/26 10:02:57;;;;;;;4.60;1.20;;;;;;;9.07;100.00;99290.25;109378;1253;58994;-59
2023/12/26 10:05:26;;;;;;;4.50;1.30;;;;;;;9.08;100.00;99290.27;109381;1251;74746;-58
2023/12/26 10:07:54;;;;;;;4.30;1.20;;;;;;;9.08;100.00;99292.81;109376;1252;66978;-59
2023/12/26 10:10:21;;;;;;;5.70;1.20;;;;;;;9.14;100.00;99301.55;109325;1253;74701;-60
2023/12/26 10:12:49;;;;;;;4.80;1.40;;;;;;;9.25;100.00;99302.73;109293;1254;58904;-59
2023/12/26 10:15:17;;;;;;;3.40;1.10;;;;;;;9.27;100.00;99311.81;109308;1253;61352;-60
2023/12/26 10:17:45;;;;;;;5.30;1.10;;;;;;;9.25;100.00;99307.09;109356;1252;74616;-59
2023/12/26 10:20:17;;;;;;;5.30;1.40;;;;;;;9.23;100.00;99313.09;109324;1253;65633;-62
2023/12/26 10:22:45;;;;;;;6.50;1.50;;;;;;;9.24;100.00;99310.65;109326;1252;71618;-59
2023/12/26 10:25:14;;;;;;;4.70;1.30;;;;;;;9.28;100.00;99311.10;109261;1252;59575;-58
2023/12/26 10:27:41;;;;;;;4.90;1.30;;;;;;;9.27;100.00;99310.61;109339;1253;60111;-59
2023/12/26 10:30:10;;;;;;;4.10;1.20;;;;;;;9.25;100.00;99316.93;109330;1252;75634;-58
2023/12/26 10:32:38;;;;;;;7.10;1.70;;;;;;;9.15;100.00;99321.90;109264;1252;67909;-58
2023/12/26 10:35:14;;;;;;;6.00;1.10;;;;;;;9.04;100.00;99325.72;109322;1253;73034;-58
2023/12/26 10:37:42;;;;;;;6.30;1.50;;;;;;;8.96;100.00;99330.22;109331;1252;59032;-59
2023/12/26 10:40:10;;;;;;;5.80;1.00;;;;;;;8.84;100.00;99335.13;109296;1252;59053;-61
2023/12/26 10:42:41;;;;;;;5.80;1.60;;;;;;;8.69;100.00;99335.71;109320;1252;75517;-59
2023/12/26 10:45:10;;;;;;;5.90;1.50;;;;;;;8.56;100.00;99342.84;109389;1252;67065;-58
2023/12/26 10:47:41;;;;;;;4.60;1.60;;;;;;;8.47;100.00;99351.30;109261;1253;73445;-59
2023/12/26 10:50:10;;;;;;;;;;;;;;;8.38;100.00;99357.27;109252;1251;60282;-63
2023/12/26 10:52:40;;;;;;;3.80;1.30;;;;;;;8.28;100.00;99352.51;109370;1253;62063;-58
2023/12/26 10:55:08;;;;;;;6.80;1.40;;;;;;;8.18;100.00;99354.48;109269;1252;73455;-59
2023/12/26 10:57:35;;;;;;;7.70;2.70;;;;;;;8.09;100.00;99361.20;109361;1253;68827;-59
2023/12/26 13:51:36;;;;;;;3.20;1.00;;;;;;;4.66;100.00;99628.11;109371;1253;74804;-56
2023/12/26 13:54:41;;;;;;;4.10;1.00;;;;;;;4.53;100.00;99628.96;109347;1256;60350;-56
2023/12/26 13:57:09;;;;;;;6.20;1.50;;;;;;;4.45;100.00;99638.33;109348;1253;61861;-56
2023/12/26 14:00:14;;;;;;;4.80;1.40;;;;;;;4.33;100.00;99643.89;109353;1252;75354;-56
2023/12/26 14:02:42;;;;;;;5.60;1.10;;;;;;;4.22;100.00;99655.70;109369;1252;69447;-57
2023/12/26 14:05:48;;;;;;;8.00;1.70;;;;;;;4.13;100.00;99660.34;109308;1253;73755;-56
2023/12/26 14:08:17;;;;;;;6.50;1.40;;;;;;;4.04;100.00;99671.30;109277;1253;60962;-56
2023/12/26 14:11:23;;;;;;;6.90;2.00;;;;;;;3.98;100.00;99677.75;109328;1253;62993;-57
2023/12/26 14:13:50;;;;;;;7.80;3.20;;;;;;;3.88;100.00;99684.18;109361;1253;76811;-56
2023/12/26 14:16:56;;;;;;;9.60;4.20;;;;;;;3.80;100.00;99680.17;109351;1253;65998;-56
2023/12/26 14:19:23;;;;;;;11.50;4.70;;;;;;;3.68;100.00;99679.24;109361;1253;72629;-56
2023/12/26 14:21:51;;;;;;;15.60;5.40;;;;;;;3.55;100.00;99674.80;109321;1253;62551;-58